createdAt,value
2017-11-26T00:00:19.007Z,95.93
2017-11-26T00:02:46.681Z,127.87
2017-11-26T00:05:14.299Z,108.00
2017-11-26T00:07:42.026Z,142.37
2017-11-26T00:10:09.689Z,154.60
2017-11-26T00:12:37.409Z,97.37
2017-11-26T00:15:05.201Z,116.33
2017-11-26T00:17:32.868Z,134.80
2017-11-26T00:20:00.604Z,124.53
2017-11-26T00:22:28.332Z,130.33
2017-11-26T00:24:56.033Z,113.57
2017-11-26T00:27:23.664Z,141.60
2017-11-26T00:29:51.381Z,114.20
2017-11-26T00:32:19.122Z,160.17
2017-11-26T00:34:46.776Z,89.00
2017-11-26T00:37:14.504Z,135.83
2017-11-26T00:39:42.116Z,116.07
2017-11-26T00:42:09.789Z,120.30
2017-11-26T00:44:37.455Z,127.13
2017-11-26T00:47:05.130Z,86.13
2017-11-26T00:49:32.748Z,91.03
2017-11-26T00:52:00.407Z,104.43
2017-11-26T00:54:28.019Z,98.97
2017-11-26T00:56:55.632Z,80.53
2017-11-26T00:59:23.300Z,121.67
2017-11-26T01:01:50.924Z,174.33
2017-11-26T01:04:18.540Z,183.27
2017-11-26T01:06:46.260Z,230.83
2017-11-26T01:09:13.872Z,257.03
2017-11-26T01:11:41.543Z,129.27
2017-11-26T01:14:09.280Z,172.80
2017-11-26T01:16:36.900Z,286.33
2017-11-26T01:19:04.513Z,161.63
2017-11-26T01:21:32.179Z,160.37
2017-11-26T01:23:59.789Z,324.90
2017-11-26T01:26:27.400Z,194.73
2017-11-26T01:28:55.065Z,134.13
2017-11-26T01:31:22.740Z,133.13
2017-11-26T01:33:50.357Z,135.37
2017-11-26T01:36:18.105Z,176.40
2017-11-26T01:38:45.761Z,142.10
2017-11-26T01:41:13.387Z,274.03
2017-11-26T01:43:41.066Z,174.60
2017-11-26T01:46:08.676Z,134.83
2017-11-26T01:48:36.360Z,196.63
2017-11-26T01:51:04.020Z,145.97
2017-11-26T01:53:31.629Z,209.03
2017-11-26T01:55:59.352Z,186.50
2017-11-26T01:58:27.021Z,168.80
2017-11-26T02:00:54.649Z,157.53
2017-11-26T02:03:22.337Z,193.70
2017-11-26T02:05:50.064Z,205.00
2017-11-26T02:08:17.737Z,126.33
2017-11-26T02:10:45.355Z,169.30
2017-11-26T02:13:13.049Z,247.27
2017-11-26T02:15:40.737Z,154.80
2017-11-26T02:18:08.413Z,186.43
2017-11-26T02:20:36.145Z,159.20
2017-11-26T02:23:03.864Z,169.00
2017-11-26T02:25:31.483Z,137.63
2017-11-26T02:27:59.148Z,114.77
2017-11-26T02:30:26.784Z,230.70
2017-11-26T02:33:06.406Z,138.83
2017-11-26T02:38:34.085Z,221.30
2017-11-26T02:41:01.724Z,132.33
2017-11-26T02:43:29.344Z,124.80
2017-11-26T02:45:57.047Z,116.60
2017-11-26T02:48:24.685Z,154.27
2017-11-26T02:50:52.301Z,200.57
2017-11-26T02:53:19.984Z,138.73
2017-11-26T02:55:47.660Z,125.97
2017-11-26T02:58:15.338Z,138.80
2017-11-26T03:00:43.057Z,148.40
2017-11-26T03:03:10.670Z,117.27
2017-11-26T03:05:38.280Z,170.50
2017-11-26T03:08:05.951Z,104.00
2017-11-26T03:10:33.592Z,119.80
2017-11-26T03:13:01.270Z,104.70
2017-11-26T03:15:28.937Z,92.60
2017-11-26T03:17:56.608Z,109.63
2017-11-26T03:20:24.232Z,123.30
2017-11-26T03:22:51.901Z,162.23
2017-11-26T03:25:19.517Z,98.70
2017-11-26T03:27:47.175Z,90.47
2017-11-26T03:30:14.893Z,105.73
2017-11-26T03:32:42.572Z,123.23
2017-11-26T03:35:10.248Z,117.63
2017-11-26T03:37:37.925Z,132.20
2017-11-26T03:40:05.584Z,96.10
2017-11-26T03:42:33.317Z,136.13
2017-11-26T03:45:01.032Z,82.97
2017-11-26T03:47:28.650Z,92.10
2017-11-26T03:49:56.263Z,120.90
2017-11-26T03:52:23.978Z,127.37
2017-11-26T03:54:51.585Z,97.33
2017-11-26T03:57:19.200Z,73.87
2017-11-26T03:59:46.912Z,101.00
2017-11-26T04:02:14.526Z,108.67
2017-11-26T04:04:42.128Z,88.17
2017-11-26T04:07:09.788Z,73.43
2017-11-26T04:09:37.404Z,64.30
2017-11-26T04:12:05.068Z,65.90
2017-11-26T04:14:32.741Z,60.17
2017-11-26T04:17:00.393Z,103.73
2017-11-26T04:19:28.073Z,80.03
2017-11-26T04:21:55.741Z,81.57
2017-11-26T04:24:23.349Z,77.27
2017-11-26T04:26:50.996Z,146.80
2017-11-26T04:29:18.721Z,102.13
2017-11-26T04:31:46.336Z,57.57
2017-11-26T04:34:13.945Z,83.83
2017-11-26T04:36:41.609Z,56.80
2017-11-26T04:39:09.221Z,148.87
2017-11-26T04:41:36.830Z,83.57
2017-11-26T04:44:04.492Z,56.23
2017-11-26T04:46:32.157Z,66.53
2017-11-26T04:48:59.784Z,65.37
2017-11-26T04:51:27.442Z,101.33
2017-11-26T04:53:55.181Z,65.37
2017-11-26T04:56:22.849Z,146.90
2017-11-26T04:58:50.605Z,52.50
2017-11-26T05:01:18.403Z,44.57
2017-11-26T05:03:46.089Z,63.10
2017-11-26T05:06:13.769Z,55.50
2017-11-26T05:08:41.389Z,47.57
2017-11-26T05:11:09.015Z,117.27
2017-11-26T05:13:36.745Z,201.33
2017-11-26T05:16:04.421Z,123.90
2017-11-26T05:18:32.089Z,59.77
2017-11-26T05:20:59.778Z,72.63
2017-11-26T05:23:27.392Z,66.87
2017-11-26T05:25:55.007Z,143.37
2017-11-26T05:28:22.730Z,169.13
2017-11-26T05:30:50.352Z,92.53
2017-11-26T05:33:18.051Z,90.67
2017-11-26T05:35:45.716Z,119.67
2017-11-26T05:38:13.342Z,171.10
2017-11-26T05:40:40.949Z,92.37
2017-11-26T05:43:08.659Z,39.50
2017-11-26T05:45:36.396Z,60.40
2017-11-26T05:48:04.105Z,75.97
2017-11-26T05:50:31.833Z,102.03
2017-11-26T05:52:59.497Z,74.63
2017-11-26T05:55:27.119Z,117.93
2017-11-26T05:57:54.837Z,54.30
2017-11-26T06:00:22.476Z,77.47
2017-11-26T06:02:50.162Z,61.87
2017-11-26T06:05:17.825Z,105.70
2017-11-26T06:07:45.445Z,46.23
2017-11-26T06:10:13.065Z,66.80
2017-11-26T06:12:40.723Z,48.67
2017-11-26T06:15:08.344Z,69.40
2017-11-26T06:17:36.013Z,52.50
2017-11-26T06:20:03.720Z,39.97
2017-11-26T06:22:31.379Z,62.43
2017-11-26T06:24:59.043Z,133.03
2017-11-26T06:27:26.764Z,95.80
2017-11-26T06:29:54.449Z,170.60
2017-11-26T06:32:22.120Z,142.27
2017-11-26T06:34:49.862Z,55.60
2017-11-26T06:37:17.529Z,67.03
2017-11-26T06:39:45.299Z,101.03
2017-11-26T06:42:13.021Z,91.00
2017-11-26T06:44:40.747Z,73.73
2017-11-26T06:47:08.432Z,151.27
2017-11-26T06:49:36.113Z,142.10
2017-11-26T06:52:03.724Z,221.67
2017-11-26T06:54:31.350Z,125.43
2017-11-26T06:56:59.067Z,86.60
2017-11-26T06:59:26.745Z,101.30
2017-11-26T07:01:54.457Z,83.83
2017-11-26T07:04:22.135Z,56.13
2017-11-26T07:06:49.856Z,58.60
2017-11-26T07:09:17.468Z,60.20
2017-11-26T07:11:45.134Z,84.97
2017-11-26T07:14:13.017Z,128.83
2017-11-26T07:16:40.643Z,56.90
2017-11-26T07:19:08.331Z,63.53
2017-11-26T07:21:36.009Z,102.90
2017-11-26T07:24:03.690Z,91.10
2017-11-26T07:26:31.416Z,85.67
2017-11-26T07:28:59.087Z,104.30
2017-11-26T07:31:26.773Z,98.83
2017-11-26T07:33:54.506Z,61.33
2017-11-26T07:36:22.120Z,58.77
2017-11-26T07:38:49.786Z,61.40
2017-11-26T07:41:17.501Z,59.37
2017-11-26T07:43:45.168Z,49.70
2017-11-26T07:46:12.795Z,53.73
2017-11-26T07:48:40.456Z,51.23
2017-11-26T07:51:08.064Z,35.73
2017-11-26T07:53:35.674Z,39.47
2017-11-26T07:56:03.369Z,49.97
2017-11-26T07:58:31.041Z,47.23
2017-11-26T08:00:58.710Z,78.57
2017-11-26T08:03:26.444Z,46.03
2017-11-26T08:05:54.114Z,46.93
2017-11-26T08:08:21.728Z,40.87
2017-11-26T08:10:49.384Z,41.10
2017-11-26T08:13:16.984Z,73.67
2017-11-26T08:15:44.601Z,56.40
2017-11-26T08:18:12.248Z,30.60
2017-11-26T08:20:39.925Z,34.70
2017-11-26T08:23:07.532Z,21.10
2017-11-26T08:25:35.321Z,29.60
2017-11-26T08:28:02.945Z,32.17
2017-11-26T08:30:30.552Z,26.33
2017-11-26T08:32:58.210Z,42.30
2017-11-26T08:35:25.820Z,34.53
2017-11-26T08:37:53.498Z,29.27
2017-11-26T08:40:21.220Z,18.80
2017-11-26T08:42:48.954Z,29.23
2017-11-26T08:45:16.609Z,25.83
2017-11-26T08:47:44.355Z,23.23
2017-11-26T08:50:12.013Z,30.70
2017-11-26T08:52:39.677Z,30.50
2017-11-26T08:55:07.465Z,30.83
2017-11-26T08:57:35.131Z,14.23
2017-11-26T09:00:02.801Z,18.53
2017-11-26T09:02:30.513Z,23.80
2017-11-26T09:04:58.244Z,36.97
2017-11-26T09:07:25.932Z,41.43
2017-11-26T09:09:53.697Z,33.53
2017-11-26T09:12:21.396Z,36.93
2017-11-26T09:14:49.076Z,25.00
2017-11-26T09:17:16.816Z,40.00
2017-11-26T09:19:44.513Z,48.73
2017-11-26T09:22:12.196Z,53.93
2017-11-26T09:24:39.981Z,50.57
2017-11-26T09:27:07.589Z,72.50
2017-11-26T09:29:35.242Z,34.33
2017-11-26T09:32:02.917Z,39.80
2017-11-26T09:34:30.547Z,79.10
2017-11-26T09:36:58.221Z,58.40
2017-11-26T09:39:25.945Z,66.57
2017-11-26T09:41:53.563Z,72.03
2017-11-26T09:44:21.204Z,83.70
2017-11-26T09:46:48.990Z,71.70
2017-11-26T09:49:16.629Z,91.47
2017-11-26T09:51:44.308Z,96.83
2017-11-26T09:54:12.074Z,84.33
2017-11-26T09:56:39.705Z,91.47
2017-11-26T09:59:07.324Z,111.33
2017-11-26T10:01:35.053Z,114.63
2017-11-26T10:04:02.682Z,104.03
2017-11-26T10:06:30.316Z,91.73
2017-11-26T10:08:58.032Z,81.33
2017-11-26T10:11:25.682Z,92.10
2017-11-26T10:13:53.361Z,65.73
2017-11-26T10:16:21.160Z,69.43
2017-11-26T10:18:48.837Z,90.93
2017-11-26T10:21:16.465Z,109.90
2017-11-26T10:23:44.128Z,63.67
2017-11-26T10:26:11.798Z,85.43
2017-11-26T10:28:39.414Z,74.83
2017-11-26T10:31:07.141Z,75.53
2017-11-26T10:33:34.887Z,62.37
2017-11-26T10:36:02.521Z,62.70
2017-11-26T10:38:30.285Z,63.40
2017-11-26T10:40:57.973Z,75.70
2017-11-26T10:43:25.679Z,82.03
2017-11-26T10:45:53.444Z,93.77
2017-11-26T10:48:21.126Z,74.53
2017-11-26T10:50:48.839Z,93.03
2017-11-26T10:53:16.540Z,112.77
2017-11-26T10:55:44.259Z,73.23
2017-11-26T10:58:11.999Z,86.33
2017-11-26T11:00:39.769Z,78.13
2017-11-26T11:03:07.401Z,79.53
2017-11-26T11:05:35.101Z,62.73
2017-11-26T11:08:02.776Z,59.70
2017-11-26T11:10:30.418Z,81.40
2017-11-26T11:12:58.048Z,68.60
2017-11-26T11:15:25.772Z,76.13
2017-11-26T11:17:53.401Z,77.27
2017-11-26T11:20:21.041Z,57.70
2017-11-26T11:22:48.704Z,82.73
2017-11-26T11:25:16.356Z,101.80
2017-11-26T11:27:43.973Z,67.13
2017-11-26T11:30:11.643Z,65.47
2017-11-26T11:32:39.249Z,53.07
2017-11-26T11:35:06.875Z,70.13
2017-11-26T11:37:34.564Z,62.50
2017-11-26T11:40:02.183Z,55.80
2017-11-26T11:42:29.849Z,59.47
2017-11-26T11:44:57.568Z,50.13
2017-11-26T11:47:25.194Z,53.10
2017-11-26T11:49:52.954Z,58.90
2017-11-26T11:52:20.721Z,53.47
2017-11-26T11:54:48.460Z,44.27
2017-11-26T11:57:16.092Z,53.73
2017-11-26T11:59:43.769Z,55.60
2017-11-26T12:02:11.452Z,58.20
2017-11-26T12:04:39.087Z,73.97
2017-11-26T12:07:06.761Z,63.80
2017-11-26T12:09:34.457Z,53.50
2017-11-26T12:12:02.089Z,57.13
2017-11-26T12:14:29.768Z,68.97
2017-11-26T12:16:57.397Z,67.73
2017-11-26T12:19:25.080Z,72.97
2017-11-26T12:21:52.817Z,79.73
2017-11-26T12:24:20.556Z,95.60
2017-11-26T12:26:48.240Z,93.17
2017-11-26T12:29:16.050Z,75.97
2017-11-26T12:31:43.789Z,102.43
2017-11-26T12:34:11.473Z,100.13
2017-11-26T12:36:39.225Z,92.40
2017-11-26T12:39:06.912Z,72.00
2017-11-26T12:41:34.552Z,64.70
2017-11-26T12:44:02.265Z,59.00
2017-11-26T12:46:29.903Z,77.80
2017-11-26T12:48:57.540Z,67.93
2017-11-26T12:51:25.321Z,67.67
2017-11-26T12:53:52.984Z,75.13
2017-11-26T12:56:20.595Z,100.70
2017-11-26T12:58:48.291Z,88.33
2017-11-26T13:01:15.936Z,93.93
2017-11-26T13:03:43.622Z,97.47
2017-11-26T13:06:11.301Z,90.73
2017-11-26T13:08:39.104Z,96.17
2017-11-26T13:11:06.752Z,116.63
2017-11-26T13:13:34.541Z,120.00
2017-11-26T13:16:02.225Z,94.97
2017-11-26T13:18:29.853Z,86.10
2017-11-26T13:20:57.524Z,68.83
2017-11-26T13:23:25.176Z,66.97
2017-11-26T13:25:52.881Z,95.23
2017-11-26T13:28:20.633Z,68.57
2017-11-26T13:30:48.427Z,63.70
2017-11-26T13:33:16.217Z,71.20
2017-11-26T13:35:43.939Z,90.67
2017-11-26T13:38:11.620Z,95.73
2017-11-26T13:40:39.279Z,96.87
2017-11-26T13:43:07.145Z,87.70
2017-11-26T13:45:34.945Z,81.57
2017-11-26T13:48:02.603Z,63.77
2017-11-26T13:50:30.374Z,156.20
2017-11-26T13:52:58.141Z,160.77
2017-11-26T13:55:25.790Z,127.97
2017-11-26T13:57:53.471Z,115.07
2017-11-26T14:00:21.191Z,98.80
2017-11-26T14:02:48.993Z,102.87
2017-11-26T14:05:16.860Z,130.57
2017-11-26T14:07:44.667Z,143.53
2017-11-26T14:10:12.296Z,118.47
2017-11-26T14:12:40.076Z,127.73
2017-11-26T14:15:07.895Z,105.23
2017-11-26T14:17:35.658Z,97.73
2017-11-26T14:20:03.384Z,76.53
2017-11-26T14:22:31.023Z,64.13
2017-11-26T14:24:58.651Z,89.37
2017-11-26T14:27:26.334Z,141.20
2017-11-26T14:29:53.960Z,81.40
2017-11-26T14:32:21.600Z,116.47
2017-11-26T14:34:49.328Z,65.70
2017-11-26T14:37:17.057Z,66.33
2017-11-26T14:39:44.839Z,66.33
2017-11-26T14:42:12.713Z,68.73
2017-11-26T14:44:40.355Z,69.30
2017-11-26T14:47:08.004Z,75.53
2017-11-26T14:49:35.692Z,71.77
2017-11-26T14:52:03.320Z,89.40
2017-11-26T14:54:30.938Z,89.73
2017-11-26T14:56:58.647Z,83.37
2017-11-26T14:59:26.340Z,89.43
2017-11-26T15:01:54.106Z,108.03
2017-11-26T15:04:21.791Z,125.57
2017-11-26T15:06:49.485Z,142.00
2017-11-26T15:09:17.185Z,145.60
2017-11-26T15:11:44.949Z,134.93
2017-11-26T15:14:12.659Z,118.00
2017-11-26T15:16:40.387Z,105.90
2017-11-26T15:19:08.143Z,88.93
2017-11-26T15:21:35.853Z,117.50
2017-11-26T15:24:03.520Z,104.87
2017-11-26T15:26:31.258Z,102.00
2017-11-26T15:28:58.893Z,97.37
2017-11-26T15:31:26.556Z,88.33
2017-11-26T15:33:54.316Z,115.13
2017-11-26T15:36:22.064Z,124.70
2017-11-26T15:38:49.808Z,105.83
2017-11-26T15:41:17.684Z,140.27
2017-11-26T15:43:45.360Z,125.77
2017-11-26T15:46:13.024Z,157.43
2017-11-26T15:48:40.745Z,161.27
2017-11-26T15:51:08.425Z,191.47
2017-11-26T15:53:36.056Z,193.47
2017-11-26T15:56:03.734Z,176.13
2017-11-26T15:58:31.447Z,185.10
2017-11-26T16:00:59.084Z,183.57
2017-11-26T16:03:26.828Z,167.30
2017-11-26T16:05:54.463Z,186.10
2017-11-26T16:08:22.091Z,156.97
2017-11-26T16:10:49.780Z,152.43
2017-11-26T16:13:17.444Z,140.67
2017-11-26T16:15:45.141Z,146.87
2017-11-26T16:18:12.817Z,174.10
2017-11-26T16:20:40.453Z,155.77
2017-11-26T16:23:08.105Z,111.50
2017-11-26T16:25:35.807Z,93.57
2017-11-26T16:28:03.537Z,87.37
2017-11-26T16:30:31.234Z,137.90
2017-11-26T16:32:58.954Z,109.87
2017-11-26T16:35:26.598Z,114.70
2017-11-26T16:37:54.329Z,131.83
2017-11-26T16:40:22.100Z,149.63
2017-11-26T16:42:49.792Z,115.23
2017-11-26T16:45:17.558Z,107.33
2017-11-26T16:47:45.253Z,157.20
2017-11-26T16:50:12.940Z,149.87
2017-11-26T16:52:40.563Z,93.23
2017-11-26T16:55:08.248Z,83.07
2017-11-26T16:57:35.892Z,109.77
2017-11-26T17:00:03.601Z,135.93
2017-11-26T17:02:31.280Z,102.13
2017-11-26T17:04:59.031Z,96.97
2017-11-26T17:07:26.705Z,83.10
2017-11-26T17:09:54.490Z,93.70
2017-11-26T17:12:22.150Z,112.07
2017-11-26T17:14:49.900Z,107.43
2017-11-26T17:17:17.604Z,145.80
2017-11-26T17:19:45.305Z,166.03
2017-11-26T17:22:12.940Z,171.80
2017-11-26T17:24:40.624Z,164.60
2017-11-26T17:27:08.325Z,137.40
2017-11-26T17:29:35.962Z,114.73
2017-11-26T17:32:03.657Z,141.13
2017-11-26T17:34:31.343Z,129.67
2017-11-26T17:36:59.033Z,129.30
2017-11-26T17:39:26.729Z,541.63
2017-11-26T17:41:54.382Z,208.47
2017-11-26T17:44:22.048Z,141.60
2017-11-26T17:46:49.725Z,117.70
2017-11-26T17:49:17.369Z,104.67
2017-11-26T17:51:45.077Z,81.10
2017-11-26T17:54:12.783Z,79.10
2017-11-26T17:56:40.467Z,105.60
2017-11-26T17:59:08.096Z,77.57
2017-11-26T18:01:35.813Z,85.47
2017-11-26T18:04:03.429Z,68.10
2017-11-26T18:06:31.064Z,63.07
2017-11-26T18:08:58.814Z,91.27
2017-11-26T18:11:26.527Z,74.53
2017-11-26T18:13:54.151Z,76.83
2017-11-26T18:16:21.856Z,85.50
2017-11-26T18:18:49.537Z,75.30
2017-11-26T18:21:17.161Z,71.30
2017-11-26T18:23:44.884Z,108.57
2017-11-26T18:26:12.529Z,108.27
2017-11-26T18:28:40.209Z,87.23
2017-11-26T18:31:07.907Z,114.83
2017-11-26T18:33:35.552Z,114.97
2017-11-26T18:36:03.230Z,121.20
2017-11-26T18:38:30.901Z,108.87
2017-11-26T18:40:58.576Z,134.17
2017-11-26T18:43:26.890Z,91.40
2017-11-26T18:45:54.559Z,113.17
2017-11-26T18:48:22.178Z,91.37
2017-11-26T18:50:49.813Z,104.50
2017-11-26T18:53:17.537Z,112.63
2017-11-26T18:55:45.147Z,107.47
2017-11-26T18:58:12.768Z,90.60
2017-11-26T19:00:40.493Z,82.73
2017-11-26T19:03:08.115Z,100.57
2017-11-26T19:05:35.731Z,94.10
2017-11-26T19:08:03.470Z,109.27
2017-11-26T19:10:31.141Z,65.33
2017-11-26T19:12:58.757Z,63.03
2017-11-26T19:15:26.481Z,100.20
2017-11-26T19:17:54.164Z,72.33
2017-11-26T19:20:21.873Z,94.83
2017-11-26T19:22:49.537Z,83.47
2017-11-26T19:25:17.160Z,95.43
2017-11-26T19:27:44.852Z,91.73
2017-11-26T19:30:12.593Z,150.10
2017-11-26T19:32:40.209Z,166.37
2017-11-26T19:35:07.838Z,171.47
2017-11-26T19:37:35.508Z,150.67
2017-11-26T19:40:03.120Z,137.63
2017-11-26T19:42:30.748Z,166.23
2017-11-26T19:44:58.482Z,195.23
2017-11-26T19:47:26.156Z,184.70
2017-11-26T19:49:53.812Z,201.37
2017-11-26T19:52:21.488Z,208.73
2017-11-26T19:54:49.104Z,204.37
2017-11-26T19:57:16.776Z,172.43
2017-11-26T19:59:44.496Z,157.67
2017-11-26T20:02:12.159Z,167.07
2017-11-26T20:04:39.841Z,152.80
2017-11-26T20:07:07.557Z,203.10
2017-11-26T20:09:35.289Z,182.53
2017-11-26T20:12:03.034Z,237.47
2017-11-26T20:14:30.733Z,186.77
2017-11-26T20:16:58.388Z,191.87
2017-11-26T20:19:26.031Z,187.97
2017-11-26T20:21:53.789Z,173.83
2017-11-26T20:24:21.481Z,172.87
2017-11-26T20:26:49.104Z,156.13
2017-11-26T20:29:16.829Z,173.10
2017-11-26T20:31:44.500Z,171.70
2017-11-26T20:34:12.176Z,160.07
2017-11-26T20:36:39.833Z,167.17
2017-11-26T20:39:07.509Z,162.07
2017-11-26T20:41:35.193Z,165.13
2017-11-26T20:44:02.857Z,161.50
2017-11-26T20:46:30.539Z,166.30
2017-11-26T20:48:58.161Z,183.17
2017-11-26T20:51:25.913Z,167.43
2017-11-26T20:53:53.594Z,174.70
2017-11-26T20:56:21.268Z,183.40
2017-11-26T20:58:48.946Z,181.33
2017-11-26T21:01:16.566Z,204.57
2017-11-26T21:03:44.177Z,183.13
2017-11-26T21:06:11.836Z,169.50
2017-11-26T21:08:39.520Z,207.10
2017-11-26T21:11:07.196Z,221.93
2017-11-26T21:13:34.935Z,196.53
2017-11-26T21:16:02.628Z,200.87
2017-11-26T21:18:30.247Z,185.17
2017-11-26T21:20:57.949Z,164.47
2017-11-26T21:23:25.585Z,169.17
2017-11-26T21:25:53.315Z,166.70
2017-11-26T21:28:20.981Z,178.87
2017-11-26T21:30:48.607Z,185.93
2017-11-26T21:33:16.284Z,207.73
2017-11-26T21:35:43.945Z,189.33
2017-11-26T21:38:11.624Z,342.40
2017-11-26T21:40:39.240Z,338.23
2017-11-26T21:43:06.937Z,251.43
2017-11-26T21:45:34.616Z,263.90
2017-11-26T21:48:02.243Z,441.70
2017-11-26T21:50:29.908Z,238.77
2017-11-26T21:52:57.642Z,194.07
2017-11-26T21:55:25.260Z,138.80
2017-11-26T21:57:52.996Z,137.47
2017-11-26T22:00:20.624Z,145.73
2017-11-26T22:02:48.304Z,189.97
2017-11-26T22:05:16.035Z,170.83
2017-11-26T22:07:43.666Z,150.50
2017-11-26T22:10:11.355Z,134.10
2017-11-26T22:12:39.024Z,134.07
2017-11-26T22:15:06.700Z,132.70
2017-11-26T22:17:34.371Z,141.60
2017-11-26T22:20:02.037Z,109.97
2017-11-26T22:22:29.668Z,131.43
2017-11-26T22:24:57.307Z,178.83
2017-11-26T22:27:24.968Z,139.37
2017-11-26T22:29:52.595Z,128.60
2017-11-26T22:32:20.211Z,137.83
2017-11-26T22:34:47.888Z,139.03
2017-11-26T22:37:15.569Z,145.43
2017-11-26T22:39:43.190Z,102.17
2017-11-26T22:42:10.916Z,140.83
2017-11-26T22:44:38.592Z,161.27
2017-11-26T22:47:06.213Z,225.00
2017-11-26T22:49:33.889Z,179.17
2017-11-26T22:52:01.576Z,103.53
2017-11-26T22:54:29.213Z,149.50
2017-11-26T22:56:56.938Z,127.73
2017-11-26T22:59:24.552Z,121.30
2017-11-26T23:01:52.172Z,99.10
2017-11-26T23:04:19.820Z,99.07
2017-11-26T23:06:47.430Z,104.60
2017-11-26T23:09:15.034Z,79.13
2017-11-26T23:11:42.702Z,85.87
2017-11-26T23:14:10.308Z,77.10
2017-11-26T23:16:37.917Z,82.73
2017-11-26T23:19:05.632Z,118.67
2017-11-26T23:21:33.257Z,98.87
2017-11-26T23:24:00.873Z,77.53
2017-11-26T23:26:28.532Z,84.20
2017-11-26T23:28:56.136Z,95.27
2017-11-26T23:31:23.756Z,74.50
2017-11-26T23:33:51.513Z,83.50
2017-11-26T23:36:19.244Z,95.80
2017-11-26T23:38:46.860Z,111.50
2017-11-26T23:41:14.590Z,89.43
2017-11-26T23:43:42.212Z,93.10
2017-11-26T23:46:09.893Z,79.17
2017-11-26T23:48:37.621Z,123.50
2017-11-26T23:51:05.235Z,109.80
2017-11-26T23:53:32.897Z,104.80
2017-11-26T23:56:00.619Z,59.20
2017-11-26T23:58:28.290Z,91.40
